createdAt,value
2019-01-04T00:00:05.395Z,993.26
2019-01-04T00:01:05.486Z,993.30
2019-01-04T00:02:05.458Z,993.33
2019-01-04T00:03:04.813Z,993.33
2019-01-04T00:04:04.683Z,993.36
2019-01-04T00:05:04.889Z,993.42
2019-01-04T00:06:05.102Z,993.36
2019-01-04T00:07:05.320Z,993.50
2019-01-04T00:08:05.460Z,993.39
2019-01-04T00:09:05.720Z,993.42
2019-01-04T00:10:04.597Z,993.42
2019-01-04T00:11:04.715Z,993.42
2019-01-04T00:12:05.287Z,993.53
2019-01-04T00:13:05.298Z,993.42
2019-01-04T00:14:04.643Z,993.44
2019-01-04T00:15:04.659Z,993.39
2019-01-04T00:16:04.797Z,993.47
2019-01-04T00:17:04.922Z,993.42
2019-01-04T00:18:04.956Z,993.44
2019-01-04T00:19:04.901Z,993.44
2019-01-04T00:20:05.144Z,993.36
2019-01-04T00:21:05.210Z,993.55
2019-01-04T00:22:04.672Z,993.39
2019-01-04T00:23:04.814Z,993.36
2019-01-04T00:24:04.949Z,993.50
2019-01-04T00:25:04.983Z,993.50
2019-01-04T00:26:05.236Z,993.42
2019-01-04T00:27:05.293Z,993.53
2019-01-04T00:28:05.285Z,993.44
2019-01-04T00:29:10.367Z,993.44
2019-01-04T00:30:04.862Z,993.44
2019-01-04T00:31:05.306Z,993.47
2019-01-04T00:32:05.228Z,993.39
2019-01-04T00:33:04.836Z,993.47
2019-01-04T00:34:05.039Z,993.41
2019-01-04T00:35:05.133Z,993.47
2019-01-04T00:36:04.682Z,993.33
2019-01-04T00:37:05.377Z,993.30
2019-01-04T00:38:05.015Z,993.26
2019-01-04T00:39:05.237Z,993.53
2019-01-04T00:40:04.586Z,993.58
2019-01-04T00:41:04.831Z,993.47
2019-01-04T00:42:04.809Z,993.39
2019-01-04T00:43:05.048Z,993.36
2019-01-04T00:44:05.519Z,993.36
2019-01-04T00:45:05.028Z,993.39
2019-01-04T00:46:05.054Z,993.58
2019-01-04T00:47:05.443Z,993.39
2019-01-04T00:48:05.419Z,993.47
2019-01-04T00:49:04.543Z,993.53
2019-01-04T00:50:04.837Z,993.39
2019-01-04T00:51:05.227Z,993.41
2019-01-04T00:52:05.179Z,993.44
2019-01-04T00:53:09.777Z,993.55
2019-01-04T00:54:05.254Z,993.44
2019-01-04T00:55:05.400Z,993.39
2019-01-04T00:56:04.895Z,993.39
2019-01-04T00:57:04.932Z,993.33
2019-01-04T00:58:05.163Z,993.53
2019-01-04T00:59:04.575Z,993.47
2019-01-04T01:00:04.674Z,993.55
2019-01-04T01:01:05.305Z,993.55
2019-01-04T01:02:05.600Z,993.50
2019-01-04T01:03:04.499Z,993.55
2019-01-04T01:04:04.746Z,993.58
2019-01-04T01:05:05.178Z,993.53
2019-01-04T01:06:04.550Z,993.50
2019-01-04T01:07:04.743Z,993.64
2019-01-04T01:08:05.236Z,993.53
2019-01-04T01:09:05.493Z,993.69
2019-01-04T01:10:05.459Z,993.53
2019-01-04T01:11:04.675Z,993.47
2019-01-04T01:12:05.214Z,993.53
2019-01-04T01:13:05.337Z,993.50
2019-01-04T01:14:04.990Z,993.53
2019-01-04T01:15:05.072Z,993.55
2019-01-04T01:16:05.230Z,993.53
2019-01-04T01:17:05.627Z,993.55
2019-01-04T01:18:04.624Z,993.64
2019-01-04T01:19:04.971Z,993.78
2019-01-04T01:20:05.010Z,993.69
2019-01-04T01:21:05.240Z,993.72
2019-01-04T01:22:04.727Z,993.67
2019-01-04T01:23:05.290Z,993.75
2019-01-04T01:24:05.303Z,993.64
2019-01-04T01:25:05.306Z,993.66
2019-01-04T01:26:05.293Z,993.67
2019-01-04T01:27:05.574Z,993.55
2019-01-04T01:28:04.913Z,993.53
2019-01-04T01:29:10.424Z,993.75
2019-01-04T01:30:04.910Z,993.80
2019-01-04T01:31:04.869Z,993.64
2019-01-04T01:32:04.934Z,993.61
2019-01-04T01:33:05.013Z,993.58
2019-01-04T01:34:05.046Z,993.64
2019-01-04T01:35:05.272Z,993.75
2019-01-04T01:36:04.602Z,993.58
2019-01-04T01:37:04.791Z,993.66
2019-01-04T01:38:04.710Z,993.69
2019-01-04T01:39:05.465Z,993.64
2019-01-04T01:40:04.672Z,993.72
2019-01-04T01:41:04.807Z,993.67
2019-01-04T01:42:04.516Z,993.61
2019-01-04T01:43:04.785Z,993.72
2019-01-04T01:44:05.174Z,993.80
2019-01-04T01:45:05.504Z,993.80
2019-01-04T01:46:04.535Z,993.86
2019-01-04T01:47:04.725Z,993.72
2019-01-04T01:48:05.153Z,993.69
2019-01-04T01:49:05.324Z,993.80
2019-01-04T01:50:05.416Z,993.66
2019-01-04T01:51:04.866Z,993.69
2019-01-04T01:52:05.001Z,993.66
2019-01-04T01:53:05.123Z,993.72
2019-01-04T01:54:05.146Z,993.75
2019-01-04T01:55:05.215Z,993.66
2019-01-04T01:56:04.787Z,993.86
2019-01-04T01:57:05.378Z,993.92
2019-01-04T01:58:05.489Z,993.86
2019-01-04T01:59:05.397Z,993.80
2019-01-04T02:00:05.459Z,993.80
2019-01-04T02:01:04.763Z,993.86
2019-01-04T02:02:05.262Z,993.83
2019-01-04T02:03:05.468Z,993.75
2019-01-04T02:04:04.533Z,993.72
2019-01-04T02:05:05.009Z,993.75
2019-01-04T02:06:05.100Z,993.89
2019-01-04T02:07:05.250Z,993.72
2019-01-04T02:08:05.218Z,993.83
2019-01-04T02:09:07.907Z,993.69
2019-01-04T02:10:04.640Z,993.83
2019-01-04T02:11:04.662Z,993.66
2019-01-04T02:12:04.777Z,993.75
2019-01-04T02:13:04.984Z,993.75
2019-01-04T02:14:05.396Z,993.75
2019-01-04T02:15:05.442Z,993.86
2019-01-04T02:16:04.543Z,993.80
2019-01-04T02:17:04.743Z,993.66
2019-01-04T02:18:05.204Z,993.66
2019-01-04T02:19:05.546Z,993.89
2019-01-04T02:20:04.790Z,993.86
2019-01-04T02:21:04.902Z,993.78
2019-01-04T02:22:04.979Z,993.78
2019-01-04T02:23:05.176Z,993.75
2019-01-04T02:24:05.239Z,993.78
2019-01-04T02:25:05.382Z,993.78
2019-01-04T02:26:05.103Z,994.05
2019-01-04T02:27:05.498Z,993.94
2019-01-04T02:28:04.578Z,993.80
2019-01-04T02:29:09.834Z,993.92
2019-01-04T02:30:05.233Z,993.78
2019-01-04T02:31:04.848Z,993.86
2019-01-04T02:32:05.022Z,993.83
2019-01-04T02:33:05.287Z,993.69
2019-01-04T02:34:04.897Z,993.89
2019-01-04T02:35:05.166Z,993.72
2019-01-04T02:36:05.244Z,993.83
2019-01-04T02:37:05.370Z,993.69
2019-01-04T02:38:05.593Z,993.80
2019-01-04T02:39:04.757Z,993.91
2019-01-04T02:40:04.655Z,993.91
2019-01-04T02:41:05.141Z,993.78
2019-01-04T02:42:05.454Z,993.80
2019-01-04T02:43:05.570Z,993.83
2019-01-04T02:44:04.703Z,993.86
2019-01-04T02:45:04.897Z,993.80
2019-01-04T02:46:05.590Z,993.83
2019-01-04T02:47:04.646Z,993.83
2019-01-04T02:48:04.709Z,993.80
2019-01-04T02:49:10.062Z,993.89
2019-01-04T02:50:05.556Z,993.69
2019-01-04T02:51:04.715Z,993.66
2019-01-04T02:52:05.354Z,993.78
2019-01-04T02:53:05.437Z,993.55
2019-01-04T02:54:04.599Z,993.75
2019-01-04T02:55:05.131Z,993.64
2019-01-04T02:56:05.782Z,993.72
2019-01-04T02:57:04.904Z,993.72
2019-01-04T02:58:04.964Z,993.69
2019-01-04T02:59:04.984Z,993.64
2019-01-04T03:00:05.187Z,993.72
2019-01-04T03:01:05.158Z,993.66
2019-01-04T03:02:05.315Z,993.58
2019-01-04T03:03:05.001Z,993.72
2019-01-04T03:04:04.968Z,993.52
2019-01-04T03:05:05.088Z,993.50
2019-01-04T03:06:05.551Z,993.66
2019-01-04T03:07:04.536Z,993.58
2019-01-04T03:08:04.705Z,993.66
2019-01-04T03:09:05.136Z,993.58
2019-01-04T03:10:05.265Z,993.58
2019-01-04T03:11:05.288Z,993.50
2019-01-04T03:12:04.999Z,993.55
2019-01-04T03:13:04.625Z,993.52
2019-01-04T03:14:05.219Z,993.58
2019-01-04T03:15:04.864Z,993.41
2019-01-04T03:16:05.077Z,993.64
2019-01-04T03:17:05.457Z,993.52
2019-01-04T03:18:04.676Z,993.44
2019-01-04T03:19:04.612Z,993.55
2019-01-04T03:20:04.700Z,993.47
2019-01-04T03:21:04.911Z,993.50
2019-01-04T03:22:05.027Z,993.36
2019-01-04T03:23:05.230Z,993.30
2019-01-04T03:24:05.265Z,993.58
2019-01-04T03:25:05.263Z,993.41
2019-01-04T03:26:05.396Z,993.36
2019-01-04T03:27:04.738Z,993.44
2019-01-04T03:28:04.709Z,993.39
2019-01-04T03:29:04.769Z,993.39
2019-01-04T03:30:04.891Z,993.47
2019-01-04T03:31:05.124Z,993.41
2019-01-04T03:32:04.643Z,993.33
2019-01-04T03:33:04.811Z,993.26
2019-01-04T03:34:04.847Z,993.36
2019-01-04T03:35:05.014Z,993.41
2019-01-04T03:36:05.044Z,993.39
2019-01-04T03:37:05.370Z,993.44
2019-01-04T03:38:04.838Z,993.33
2019-01-04T03:39:04.981Z,993.39
2019-01-04T03:40:05.185Z,993.30
2019-01-04T03:41:05.280Z,993.33
2019-01-04T03:42:04.725Z,993.28
2019-01-04T03:43:05.176Z,993.36
2019-01-04T03:44:09.704Z,993.26
2019-01-04T03:45:05.224Z,993.41
2019-01-04T03:46:04.553Z,993.36
2019-01-04T03:47:04.726Z,993.28
2019-01-04T03:48:05.282Z,993.26
2019-01-04T03:49:05.257Z,993.30
2019-01-04T03:50:05.329Z,993.36
2019-01-04T03:51:04.879Z,993.30
2019-01-04T03:52:04.985Z,993.44
2019-01-04T03:53:04.506Z,993.39
2019-01-04T03:54:05.206Z,993.23
2019-01-04T03:55:05.367Z,993.26
2019-01-04T03:56:04.941Z,993.36
2019-01-04T03:57:04.922Z,993.36
2019-01-04T03:58:05.267Z,993.39
2019-01-04T03:59:05.471Z,993.26
2019-01-04T04:00:04.551Z,993.53
2019-01-04T04:01:05.164Z,993.39
2019-01-04T04:02:05.228Z,993.36
2019-01-04T04:03:04.722Z,993.30
2019-01-04T04:04:05.426Z,993.47
2019-01-04T04:05:04.729Z,993.44
2019-01-04T04:06:04.967Z,993.39
2019-01-04T04:07:05.132Z,993.42
2019-01-04T04:08:05.204Z,993.50
2019-01-04T04:09:04.609Z,993.36
2019-01-04T04:10:04.693Z,993.36
2019-01-04T04:11:04.930Z,993.39
2019-01-04T04:12:05.340Z,993.28
2019-01-04T04:13:05.531Z,993.50
2019-01-04T04:14:04.648Z,993.42
2019-01-04T04:15:04.887Z,993.42
2019-01-04T04:16:05.181Z,993.39
2019-01-04T04:17:05.438Z,993.42
2019-01-04T04:18:05.444Z,993.39
2019-01-04T04:19:05.204Z,993.33
2019-01-04T04:20:05.199Z,993.23
2019-01-04T04:21:05.275Z,993.30
2019-01-04T04:22:05.532Z,993.26
2019-01-04T04:23:04.829Z,993.36
2019-01-04T04:24:04.934Z,993.42
2019-01-04T04:25:05.119Z,993.23
2019-01-04T04:26:05.053Z,993.23
2019-01-04T04:27:04.722Z,993.26
2019-01-04T04:28:04.855Z,993.28
2019-01-04T04:29:10.580Z,993.15
2019-01-04T04:30:04.981Z,993.23
2019-01-04T04:31:04.605Z,993.28
2019-01-04T04:32:05.082Z,993.28
2019-01-04T04:33:05.351Z,993.23
2019-01-04T04:34:05.497Z,993.20
2019-01-04T04:35:04.937Z,993.26
2019-01-04T04:36:05.010Z,993.28
2019-01-04T04:37:05.015Z,993.20
2019-01-04T04:38:05.477Z,993.12
2019-01-04T04:39:04.706Z,993.15
2019-01-04T04:40:04.877Z,993.33
2019-01-04T04:41:04.709Z,993.15
2019-01-04T04:42:05.048Z,993.20
2019-01-04T04:43:05.212Z,993.20
2019-01-04T04:44:05.489Z,993.23
2019-01-04T04:45:05.551Z,993.20
2019-01-04T04:46:04.580Z,993.20
2019-01-04T04:47:04.898Z,993.26
2019-01-04T04:48:05.026Z,993.15
2019-01-04T04:49:05.159Z,993.23
2019-01-04T04:50:05.275Z,993.12
2019-01-04T04:51:05.352Z,993.15
2019-01-04T04:52:10.582Z,993.28
2019-01-04T04:53:05.085Z,993.18
2019-01-04T04:54:05.056Z,993.18
2019-01-04T04:55:04.631Z,993.26
2019-01-04T04:56:04.791Z,993.33
2019-01-04T04:57:05.318Z,993.23
2019-01-04T04:58:04.690Z,993.15
2019-01-04T04:59:04.715Z,993.15
2019-01-04T05:00:05.288Z,993.18
2019-01-04T05:01:05.434Z,993.09
2019-01-04T05:02:05.105Z,993.12
2019-01-04T05:03:04.758Z,993.15
2019-01-04T05:04:04.829Z,993.28
2019-01-04T05:05:04.915Z,993.18
2019-01-04T05:06:05.045Z,993.12
2019-01-04T05:07:05.097Z,993.18
2019-01-04T05:08:05.438Z,993.21
2019-01-04T05:09:04.620Z,993.09
2019-01-04T05:10:04.863Z,993.23
2019-01-04T05:11:05.023Z,993.09
2019-01-04T05:12:05.246Z,992.95
2019-01-04T05:13:04.606Z,993.12
2019-01-04T05:14:04.799Z,992.93
2019-01-04T05:15:05.061Z,993.07
2019-01-04T05:16:05.490Z,992.93
2019-01-04T05:17:04.577Z,993.04
2019-01-04T05:18:04.675Z,993.07
2019-01-04T05:19:04.988Z,993.12
2019-01-04T05:20:05.230Z,992.90
2019-01-04T05:21:04.872Z,992.90
2019-01-04T05:22:05.116Z,992.95
2019-01-04T05:23:05.357Z,992.95
2019-01-04T05:24:04.650Z,992.98
2019-01-04T05:25:05.377Z,992.90
2019-01-04T05:26:05.422Z,992.93
2019-01-04T05:27:04.650Z,992.88
2019-01-04T05:28:04.972Z,992.95
2019-01-04T05:29:10.311Z,992.77
2019-01-04T05:30:04.834Z,992.88
2019-01-04T05:31:05.027Z,992.74
2019-01-04T05:32:05.604Z,992.74
2019-01-04T05:33:04.829Z,992.77
2019-01-04T05:34:05.150Z,992.63
2019-01-04T05:35:05.399Z,992.82
2019-01-04T05:36:05.440Z,992.74
2019-01-04T05:37:04.712Z,992.77
2019-01-04T05:38:05.094Z,992.74
2019-01-04T05:39:05.200Z,992.69
2019-01-04T05:40:05.179Z,992.88
2019-01-04T05:41:05.287Z,992.74
2019-01-04T05:42:05.465Z,992.71
2019-01-04T05:43:05.478Z,992.69
2019-01-04T05:44:04.542Z,992.88
2019-01-04T05:45:05.067Z,992.80
2019-01-04T05:46:04.980Z,992.57
2019-01-04T05:47:04.984Z,992.88
2019-01-04T05:48:05.257Z,992.82
2019-01-04T05:49:04.981Z,992.66
2019-01-04T05:50:04.542Z,992.77
2019-01-04T05:51:04.699Z,992.71
2019-01-04T05:52:04.772Z,992.82
2019-01-04T05:53:05.446Z,992.66
2019-01-04T05:54:04.798Z,992.69
2019-01-04T05:55:04.767Z,992.66
2019-01-04T05:56:04.906Z,992.74
2019-01-04T05:57:05.010Z,992.77
2019-01-04T05:58:05.313Z,992.68
2019-01-04T05:59:04.766Z,992.71
2019-01-04T06:00:04.645Z,992.66
2019-01-04T06:01:04.960Z,992.60
2019-01-04T06:02:05.007Z,992.63
2019-01-04T06:03:04.553Z,992.63
2019-01-04T06:04:05.192Z,992.77
2019-01-04T06:05:04.796Z,992.74
2019-01-04T06:06:05.472Z,992.74
2019-01-04T06:07:04.726Z,992.82
2019-01-04T06:08:05.320Z,992.77
2019-01-04T06:09:05.324Z,992.85
2019-01-04T06:10:05.324Z,992.80
2019-01-04T06:11:04.875Z,992.90
2019-01-04T06:12:05.165Z,992.85
2019-01-04T06:13:05.307Z,992.93
2019-01-04T06:14:05.253Z,992.80
2019-01-04T06:15:04.950Z,992.69
2019-01-04T06:16:05.438Z,992.77
2019-01-04T06:17:05.161Z,992.82
2019-01-04T06:18:05.385Z,992.74
2019-01-04T06:19:04.761Z,992.80
2019-01-04T06:20:04.858Z,992.77
2019-01-04T06:21:05.375Z,992.82
2019-01-04T06:22:05.687Z,992.80
2019-01-04T06:23:04.667Z,992.80
2019-01-04T06:24:05.133Z,992.71
2019-01-04T06:25:05.336Z,992.66
2019-01-04T06:26:04.876Z,992.74
2019-01-04T06:27:05.117Z,992.69
2019-01-04T06:28:05.218Z,992.71
2019-01-04T06:29:10.459Z,992.80
2019-01-04T06:30:04.932Z,992.80
2019-01-04T06:31:05.048Z,992.82
2019-01-04T06:32:05.365Z,992.60
2019-01-04T06:33:05.418Z,992.71
2019-01-04T06:34:05.054Z,992.71
2019-01-04T06:35:05.501Z,992.77
2019-01-04T06:36:05.597Z,992.77
2019-01-04T06:37:05.006Z,992.69
2019-01-04T06:38:05.295Z,992.66
2019-01-04T06:39:05.467Z,992.77
2019-01-04T06:40:04.817Z,992.77
2019-01-04T06:41:05.041Z,992.88
2019-01-04T06:42:04.827Z,992.74
2019-01-04T06:43:04.902Z,992.82
2019-01-04T06:44:05.133Z,992.85
2019-01-04T06:45:05.578Z,992.85
2019-01-04T06:46:05.009Z,992.93
2019-01-04T06:47:04.753Z,992.88
2019-01-04T06:48:04.840Z,992.77
2019-01-04T06:49:04.927Z,992.93
2019-01-04T06:50:04.943Z,992.95
2019-01-04T06:51:04.998Z,992.77
2019-01-04T06:52:05.313Z,992.85
2019-01-04T06:53:04.885Z,993.04
2019-01-04T06:54:05.351Z,992.98
2019-01-04T06:55:05.351Z,992.82
2019-01-04T06:56:04.996Z,992.93
2019-01-04T06:57:05.399Z,992.82
2019-01-04T06:58:04.652Z,992.82
2019-01-04T06:59:04.618Z,992.90
2019-01-04T07:00:05.026Z,992.85
2019-01-04T07:01:05.108Z,992.95
2019-01-04T07:02:05.187Z,992.90
2019-01-04T07:03:05.587Z,992.98
2019-01-04T07:04:04.567Z,992.88
2019-01-04T07:05:05.358Z,992.95
2019-01-04T07:06:05.315Z,992.95
2019-01-04T07:07:05.445Z,992.82
2019-01-04T07:08:05.426Z,992.85
2019-01-04T07:09:04.521Z,993.04
2019-01-04T07:10:04.678Z,992.90
2019-01-04T07:11:05.398Z,992.92
2019-01-04T07:12:04.619Z,992.93
2019-01-04T07:13:04.830Z,993.21
2019-01-04T07:14:04.819Z,992.95
2019-01-04T07:15:05.042Z,993.04
2019-01-04T07:16:05.284Z,993.07
2019-01-04T07:17:04.692Z,993.21
2019-01-04T07:18:05.416Z,993.21
2019-01-04T07:19:05.005Z,993.21
2019-01-04T07:20:04.757Z,993.21
2019-01-04T07:21:04.904Z,993.23
2019-01-04T07:22:04.898Z,993.28
2019-01-04T07:23:05.044Z,993.18
2019-01-04T07:24:05.289Z,993.23
2019-01-04T07:25:05.280Z,993.18
2019-01-04T07:26:04.726Z,993.28
2019-01-04T07:27:04.865Z,993.15
2019-01-04T07:28:05.393Z,993.26
2019-01-04T07:29:09.855Z,993.12
2019-01-04T07:30:05.325Z,993.36
2019-01-04T07:31:05.031Z,993.39
2019-01-04T07:32:05.163Z,993.28
2019-01-04T07:33:05.258Z,993.26
2019-01-04T07:34:05.773Z,993.26
2019-01-04T07:35:04.684Z,993.42
2019-01-04T07:36:05.311Z,993.23
2019-01-04T07:37:05.302Z,993.12
2019-01-04T07:38:04.881Z,993.09
2019-01-04T07:39:04.976Z,993.20
2019-01-04T07:40:05.296Z,993.31
2019-01-04T07:41:05.514Z,993.18
2019-01-04T07:42:04.805Z,993.20
2019-01-04T07:43:05.519Z,993.23
2019-01-04T07:44:05.635Z,993.23
2019-01-04T07:45:04.662Z,993.20
2019-01-04T07:46:05.190Z,993.15
2019-01-04T07:47:05.264Z,993.15
2019-01-04T07:48:05.028Z,993.15
2019-01-04T07:49:12.364Z,993.26
2019-01-04T07:50:05.195Z,993.20
2019-01-04T07:51:04.903Z,993.33
2019-01-04T07:52:04.615Z,993.33
2019-01-04T07:53:04.868Z,993.36
2019-01-04T07:54:05.173Z,993.36
2019-01-04T07:55:05.311Z,993.28
2019-01-04T07:56:05.400Z,993.15
2019-01-04T07:57:05.287Z,993.15
2019-01-04T07:58:05.310Z,993.15
2019-01-04T07:59:05.385Z,993.31
2019-01-04T08:00:04.689Z,993.18
2019-01-04T08:01:04.772Z,993.42
2019-01-04T08:02:05.280Z,993.18
2019-01-04T08:03:05.293Z,993.20
2019-01-04T08:04:05.356Z,993.15
2019-01-04T08:05:05.052Z,993.18
2019-01-04T08:06:05.289Z,993.15
2019-01-04T08:07:05.559Z,992.98
2019-01-04T08:08:04.876Z,993.04
2019-01-04T08:09:05.815Z,993.12
2019-01-04T08:10:04.873Z,993.15
2019-01-04T08:11:05.330Z,993.09
2019-01-04T08:12:05.875Z,992.95
2019-01-04T08:13:04.786Z,992.79
2019-01-04T08:14:05.511Z,993.09
2019-01-04T08:15:05.104Z,992.98
2019-01-04T08:16:05.228Z,993.09
2019-01-04T08:17:05.294Z,993.06
2019-01-04T08:18:04.787Z,993.15
2019-01-04T08:19:05.161Z,993.20
2019-01-04T08:20:05.451Z,993.15
2019-01-04T08:21:05.054Z,993.27
2019-01-04T08:22:05.572Z,993.15
2019-01-04T08:23:05.635Z,993.17
2019-01-04T08:24:04.710Z,993.12
2019-01-04T08:25:04.950Z,993.27
2019-01-04T08:26:05.358Z,993.14
2019-01-04T08:27:05.640Z,993.17
2019-01-04T08:28:04.613Z,993.20
2019-01-04T08:29:05.257Z,993.06
2019-01-04T08:30:04.810Z,993.17
2019-01-04T08:31:05.685Z,993.00
2019-01-04T08:32:05.351Z,993.00
2019-01-04T08:33:05.549Z,993.12
2019-01-04T08:34:09.697Z,992.97
2019-01-04T08:35:05.188Z,993.00
2019-01-04T08:36:06.380Z,992.97
2019-01-04T08:37:05.062Z,993.06
2019-01-04T08:38:05.246Z,992.97
2019-01-04T08:39:05.513Z,992.97
2019-01-04T08:40:04.759Z,993.00
2019-01-04T08:41:05.058Z,992.87
2019-01-04T08:42:05.354Z,992.84
2019-01-04T08:43:05.301Z,992.92
2019-01-04T08:44:05.129Z,992.97
2019-01-04T08:45:05.562Z,992.95
2019-01-04T08:46:04.874Z,992.89
2019-01-04T08:47:05.571Z,992.76
2019-01-04T08:48:05.502Z,992.84
2019-01-04T08:49:04.647Z,992.79
2019-01-04T08:50:04.795Z,992.76
2019-01-04T08:51:05.148Z,992.73
2019-01-04T08:52:05.628Z,992.79
2019-01-04T08:53:05.577Z,992.76
2019-01-04T08:54:04.827Z,992.89
2019-01-04T08:55:04.973Z,992.76
2019-01-04T08:56:05.525Z,992.68
2019-01-04T08:57:04.854Z,992.76
2019-01-04T08:58:05.543Z,992.73
2019-01-04T08:59:04.969Z,992.62
2019-01-04T09:00:05.511Z,992.70
2019-01-04T09:01:05.310Z,992.81
2019-01-04T09:02:05.394Z,992.67
2019-01-04T09:03:05.038Z,992.73
2019-01-04T09:04:04.709Z,992.76
2019-01-04T09:05:05.008Z,992.89
2019-01-04T09:06:04.682Z,992.70
2019-01-04T09:07:05.131Z,992.67
2019-01-04T09:08:10.388Z,992.62
2019-01-04T09:09:05.789Z,992.76
2019-01-04T09:10:04.623Z,992.70
2019-01-04T09:11:04.762Z,992.62
2019-01-04T09:12:04.864Z,992.59
2019-01-04T09:13:04.637Z,992.56
2019-01-04T09:14:04.831Z,992.59
2019-01-04T09:15:04.965Z,992.45
2019-01-04T09:16:05.335Z,992.37
2019-01-04T09:17:04.996Z,992.53
2019-01-04T09:18:05.188Z,992.39
2019-01-04T09:19:04.856Z,992.50
2019-01-04T09:20:05.350Z,992.45
2019-01-04T09:21:04.863Z,992.50
2019-01-04T09:22:05.093Z,992.50
2019-01-04T09:23:05.023Z,992.42
2019-01-04T09:24:05.046Z,992.22
2019-01-04T09:25:05.114Z,992.48
2019-01-04T09:26:05.429Z,992.42
2019-01-04T09:27:05.437Z,992.34
2019-01-04T09:28:04.918Z,992.42
2019-01-04T09:29:10.163Z,992.34
2019-01-04T09:30:04.872Z,992.34
2019-01-04T09:31:04.999Z,992.39
2019-01-04T09:32:04.657Z,992.47
2019-01-04T09:33:04.938Z,992.31
2019-01-04T09:34:05.519Z,992.31
2019-01-04T09:35:05.330Z,992.47
2019-01-04T09:36:05.509Z,992.47
2019-01-04T09:37:04.995Z,992.53
2019-01-04T09:38:05.118Z,992.45
2019-01-04T09:39:05.638Z,992.47
2019-01-04T09:40:05.034Z,992.36
2019-01-04T09:41:05.495Z,992.33
2019-01-04T09:42:04.814Z,992.30
2019-01-04T09:43:05.022Z,992.22
2019-01-04T09:44:05.628Z,992.44
2019-01-04T09:45:04.879Z,992.39
2019-01-04T09:46:04.726Z,992.28
2019-01-04T09:47:04.980Z,992.30
2019-01-04T09:48:04.787Z,992.25
2019-01-04T09:49:05.023Z,992.36
2019-01-04T09:50:05.291Z,992.30
2019-01-04T09:51:05.349Z,992.42
2019-01-04T09:52:05.380Z,992.36
2019-01-04T09:53:04.877Z,992.42
2019-01-04T09:54:04.996Z,992.39
2019-01-04T09:55:05.121Z,992.25
2019-01-04T09:56:04.903Z,992.25
2019-01-04T09:57:05.130Z,992.22
2019-01-04T09:58:04.799Z,992.28
2019-01-04T09:59:05.306Z,992.28
2019-01-04T10:00:05.541Z,992.16
2019-01-04T10:01:05.291Z,992.33
2019-01-04T10:02:04.741Z,992.33
2019-01-04T10:03:04.829Z,992.33
2019-01-04T10:04:05.187Z,992.33
2019-01-04T10:05:05.269Z,992.25
2019-01-04T10:06:05.347Z,992.25
2019-01-04T10:07:04.766Z,992.25
2019-01-04T10:08:05.462Z,992.16
2019-01-04T10:09:04.950Z,992.19
2019-01-04T10:10:05.477Z,992.19
2019-01-04T10:11:04.656Z,992.16
2019-01-04T10:12:04.773Z,992.00
2019-01-04T10:13:05.094Z,991.97
2019-01-04T10:14:05.164Z,991.88
2019-01-04T10:15:04.927Z,991.85
2019-01-04T10:16:04.754Z,991.91
2019-01-04T10:17:04.745Z,991.91
2019-01-04T10:18:05.195Z,991.80
2019-01-04T10:19:04.666Z,991.77
2019-01-04T10:20:04.926Z,991.88
2019-01-04T10:21:05.312Z,991.77
2019-01-04T10:22:05.517Z,991.68
2019-01-04T10:23:05.002Z,991.74
2019-01-04T10:24:04.784Z,991.74
2019-01-04T10:25:04.950Z,991.68
2019-01-04T10:26:05.044Z,991.82
2019-01-04T10:27:05.219Z,991.71
2019-01-04T10:28:04.847Z,991.71
2019-01-04T10:29:10.123Z,991.71
2019-01-04T10:30:04.554Z,991.54
2019-01-04T10:31:05.003Z,991.54
2019-01-04T10:32:05.087Z,991.54
2019-01-04T10:33:04.898Z,991.54
2019-01-04T10:34:05.327Z,991.51
2019-01-04T10:35:10.931Z,991.47
2019-01-04T10:36:04.736Z,991.60
2019-01-04T10:37:04.877Z,991.51
2019-01-04T10:38:05.058Z,991.33
2019-01-04T10:39:05.259Z,991.41
2019-01-04T10:40:11.729Z,991.38
2019-01-04T10:41:05.441Z,991.24
2019-01-04T10:42:04.704Z,991.33
2019-01-04T10:43:04.849Z,991.10
2019-01-04T10:44:05.558Z,991.10
2019-01-04T10:45:05.329Z,991.05
2019-01-04T10:46:05.611Z,991.02
2019-01-04T10:47:04.638Z,991.19
2019-01-04T10:48:05.488Z,991.10
2019-01-04T10:49:10.564Z,991.18
2019-01-04T10:50:05.103Z,991.02
2019-01-04T10:51:05.433Z,991.07
2019-01-04T10:52:05.004Z,990.91
2019-01-04T10:53:05.071Z,990.96
2019-01-04T10:54:05.414Z,990.90
2019-01-04T10:55:05.103Z,990.93
2019-01-04T10:56:05.742Z,990.96
2019-01-04T10:57:04.754Z,990.96
2019-01-04T10:58:06.002Z,990.79
2019-01-04T10:59:05.015Z,990.79
2019-01-04T11:00:05.206Z,990.96
2019-01-04T11:01:05.298Z,990.76
2019-01-04T11:02:05.500Z,990.82
2019-01-04T11:03:04.923Z,990.74
2019-01-04T11:04:05.265Z,990.76
2019-01-04T11:05:05.488Z,990.79
2019-01-04T11:06:04.767Z,990.76
2019-01-04T11:07:05.595Z,990.74
2019-01-04T11:08:05.227Z,990.60
2019-01-04T11:09:04.846Z,990.63
2019-01-04T11:10:05.497Z,990.74
2019-01-04T11:11:04.549Z,990.74
2019-01-04T11:12:05.096Z,990.68
2019-01-04T11:13:04.667Z,990.54
2019-01-04T11:14:04.789Z,990.65
2019-01-04T11:15:04.915Z,990.68
2019-01-04T11:16:05.155Z,990.63
2019-01-04T11:17:05.420Z,990.60
2019-01-04T11:18:10.336Z,990.54
2019-01-04T11:19:04.885Z,990.51
2019-01-04T11:20:05.357Z,990.49
2019-01-04T11:21:04.484Z,990.54
2019-01-04T11:22:04.618Z,990.57
2019-01-04T11:23:04.962Z,990.49
2019-01-04T11:24:04.982Z,990.54
2019-01-04T11:25:05.308Z,990.51
2019-01-04T11:26:05.361Z,990.44
2019-01-04T11:27:04.635Z,990.44
2019-01-04T11:28:04.783Z,990.35
2019-01-04T11:29:10.031Z,990.48
2019-01-04T11:30:04.676Z,990.38
2019-01-04T11:31:04.757Z,990.32
2019-01-04T11:32:04.799Z,990.27
2019-01-04T11:33:04.915Z,990.18
2019-01-04T11:34:04.945Z,990.30
2019-01-04T11:35:04.518Z,990.32
2019-01-04T11:36:04.723Z,990.32
2019-01-04T11:37:05.125Z,990.15
2019-01-04T11:38:05.466Z,990.24
2019-01-04T11:39:05.255Z,990.21
2019-01-04T11:40:05.373Z,990.10
2019-01-04T11:41:05.345Z,990.15
2019-01-04T11:42:05.488Z,990.24
2019-01-04T11:43:05.757Z,990.15
2019-01-04T11:44:04.595Z,990.13
2019-01-04T11:45:04.806Z,990.32
2019-01-04T11:46:05.234Z,990.26
2019-01-04T11:47:04.646Z,990.12
2019-01-04T11:48:04.635Z,990.12
2019-01-04T11:49:10.222Z,990.18
2019-01-04T11:50:04.647Z,990.07
2019-01-04T11:51:05.339Z,990.07
2019-01-04T11:52:05.504Z,990.07
2019-01-04T11:53:04.897Z,990.15
2019-01-04T11:54:04.919Z,990.10
2019-01-04T11:55:05.008Z,989.96
2019-01-04T11:56:05.197Z,990.04
2019-01-04T11:57:04.796Z,989.93
2019-01-04T11:58:05.395Z,989.90
2019-01-04T11:59:04.705Z,989.90
2019-01-04T12:00:04.868Z,989.76
2019-01-04T12:01:04.898Z,989.73
2019-01-04T12:02:04.930Z,990.01
2019-01-04T12:03:05.032Z,989.95
2019-01-04T12:04:05.455Z,989.79
2019-01-04T12:05:04.635Z,989.93
2019-01-04T12:06:04.868Z,989.98
2019-01-04T12:07:05.059Z,989.84
2019-01-04T12:08:04.650Z,989.84
2019-01-04T12:09:05.202Z,989.90
2019-01-04T12:10:05.500Z,989.84
2019-01-04T12:11:04.611Z,989.79
2019-01-04T12:12:05.020Z,989.70
2019-01-04T12:13:04.614Z,989.63
2019-01-04T12:14:05.274Z,989.66
2019-01-04T12:15:05.552Z,989.66
2019-01-04T12:16:04.939Z,989.70
2019-01-04T12:17:05.228Z,989.68
2019-01-04T12:18:05.485Z,989.52
2019-01-04T12:19:04.684Z,989.73
2019-01-04T12:20:04.680Z,989.57
2019-01-04T12:21:04.764Z,989.57
2019-01-04T12:22:04.902Z,989.52
2019-01-04T12:23:11.022Z,989.57
2019-01-04T12:24:05.063Z,989.46
2019-01-04T12:25:05.094Z,989.35
2019-01-04T12:26:05.502Z,989.43
2019-01-04T12:27:05.425Z,989.52
2019-01-04T12:28:04.814Z,989.52